Tamara — HOEH — position and weather

sailwx.info

Track history (hours):
 
Tides and Currents Weather Stations Pressure Air Temp Water Temp Dewpoint Dewpoint Depression Visibility Wind Speed Wind Dir Waves Ship Positions

Tamara

Last reported at 2015-Aug-01 17:33 UTC. Time now 2015-Aug-01 18:16 UTC.
Position N 35°56' E 014°50'.

Length 117 m; draft 5.5 m.

Type: Ship (hazmat cat A). MMSI: 353900000.

Date/timePositionNaut miles runAvg speedWind from/ knotsBaromVisibWave heightAir tempDewpointWater temp
2015-Aug-01 17:33N 35°56' E 014°50'0 0.0
2015-Aug-01 15:27N 35°56' E 014°50'0 0.0
2015-Aug-01 14:33N 35°56' E 014°50'0 0.0
2015-Aug-01 13:33N 35°56' E 014°50'0 0.0
2015-Aug-01 12:33N 35°56' E 014°50'0 0.0
2015-Aug-01 11:33N 35°56' E 014°50'0 0.0
2015-Aug-01 10:33N 35°56' E 014°50'0 0.0
2015-Aug-01 09:27N 35°56' E 014°50'0 0.0
2015-Aug-01 08:33N 35°56' E 014°50'0 0.0
2015-Aug-01 07:33N 35°56' E 014°50'0 0.0
2015-Aug-01 06:33N 35°56' E 014°50'0 0.0
2015-Aug-01 05:33N 35°56' E 014°50'0 0.0
2015-Aug-01 04:33N 35°56' E 014°50'0 0.0
2015-Aug-01 03:33N 35°56' E 014°50'0 0.0
2015-Aug-01 02:33N 35°56' E 014°50'0 0.0
2015-Aug-01 01:33N 35°56' E 014°50'0 0.0
2015-Aug-01 00:33N 35°56' E 014°50'0 0.0
2015-Jul-31 23:32N 35°56' E 014°50'0 0.0
2015-Jul-31 22:32N 35°56' E 014°50'0 0.0
2015-Jul-31 21:32N 35°56' E 014°50'0 0.0
2015-Jul-31 20:32N 35°56' E 014°50'0 0.0
2015-Jul-31 19:32N 35°56' E 014°50'0 0.0
2015-Jul-31 18:32N 35°56' E 014°50'0 0.0
2015-Jul-31 17:32N 35°56' E 014°50'0 0.0
2015-Jul-31 16:32N 35°56' E 014°50'0 0.0
2015-Jul-31 15:32N 35°56' E 014°50'0 0.0
2015-Jul-31 14:32N 35°56' E 014°50'0 0.0
2015-Jul-31 13:32N 35°56' E 014°50'0 0.0
2015-Jul-31 12:32N 35°56' E 014°50'0 0.0
2015-Jul-31 11:32N 35°56' E 014°50'0 0.0
2015-Jul-31 10:32N 35°56' E 014°50'3 3.4
2015-Jul-31 09:33N 35°56' E 014°46'8 7.9
2015-Jul-31 08:33N 35°57' E 014°36'9 9.0
2015-Jul-31 07:33N 35°53' E 014°45'0 0.2
2015-Jul-31 06:33N 35°53' E 014°46'0 0.0
2015-Jul-31 05:33N 35°53' E 014°46'0 0.0
2015-Jul-31 04:33N 35°53' E 014°46'0 0.0
2015-Jul-31 03:33N 35°53' E 014°46'0 0.0
2015-Jul-31 02:30N 35°53' E 014°46'0 0.0
2015-Jul-31 01:33N 35°53' E 014°46'5 5.1
2015-Jul-31 00:33N 35°54' E 014°52'1212.4
2015-Jul-30 23:33N 36°04' E 015°02'1714.5
2015-Jul-30 22:24N 36°15' E 015°17'1214.5
2015-Jul-30 21:33N 36°23' E 015°28'1414.1
2015-Jul-30 20:33N 36°32' E 015°41'1414.4
2015-Jul-30 19:33N 36°41' E 015°55'1514.7
2015-Jul-30 18:33N 36°53' E 016°06'1615.2
2015-Jul-30 17:31N 37°06' E 016°18'4614.6
2015-Jul-30 14:23N 37°44' E 016°50'2714.5
2015-Jul-30 12:32N 38°07' E 017°08'  
Track history (hours):
 
Tides and Currents Weather Stations Pressure Air Temp Water Temp Dewpoint Dewpoint Depression Visibility Wind Speed Wind Dir Waves Ship Positions

Tamara

Last reported at 2015-Aug-01 17:33 UTC. Time now 2015-Aug-01 18:16 UTC.
Position N 35°56' E 014°50'.

Length 117 m; draft 5.5 m.

Type: Ship (hazmat cat A). MMSI: 353900000.

Date/timePositionNaut miles runAvg speedWind from/ knotsBaromVisibWave heightAir tempDewpointWater temp
2015-Aug-01 17:33N 35°56' E 014°50'0 0.0
2015-Aug-01 15:27N 35°56' E 014°50'0 0.0
2015-Aug-01 14:33N 35°56' E 014°50'0 0.0
2015-Aug-01 13:33N 35°56' E 014°50'0 0.0
2015-Aug-01 12:33N 35°56' E 014°50'0 0.0
2015-Aug-01 11:33N 35°56' E 014°50'0 0.0
2015-Aug-01 10:33N 35°56' E 014°50'0 0.0
2015-Aug-01 09:27N 35°56' E 014°50'0 0.0
2015-Aug-01 08:33N 35°56' E 014°50'0 0.0
2015-Aug-01 07:33N 35°56' E 014°50'0 0.0
2015-Aug-01 06:33N 35°56' E 014°50'0 0.0
2015-Aug-01 05:33N 35°56' E 014°50'0 0.0
2015-Aug-01 04:33N 35°56' E 014°50'0 0.0
2015-Aug-01 03:33N 35°56' E 014°50'0 0.0
2015-Aug-01 02:33N 35°56' E 014°50'0 0.0
2015-Aug-01 01:33N 35°56' E 014°50'0 0.0
2015-Aug-01 00:33N 35°56' E 014°50'0 0.0
2015-Jul-31 23:32N 35°56' E 014°50'0 0.0
2015-Jul-31 22:32N 35°56' E 014°50'0 0.0
2015-Jul-31 21:32N 35°56' E 014°50'0 0.0
2015-Jul-31 20:32N 35°56' E 014°50'0 0.0
2015-Jul-31 19:32N 35°56' E 014°50'0 0.0
2015-Jul-31 18:32N 35°56' E 014°50'0 0.0
2015-Jul-31 17:32N 35°56' E 014°50'0 0.0
2015-Jul-31 16:32N 35°56' E 014°50'0 0.0
2015-Jul-31 15:32N 35°56' E 014°50'0 0.0
2015-Jul-31 14:32N 35°56' E 014°50'0 0.0
2015-Jul-31 13:32N 35°56' E 014°50'0 0.0
2015-Jul-31 12:32N 35°56' E 014°50'0 0.0
2015-Jul-31 11:32N 35°56' E 014°50'0 0.0
2015-Jul-31 10:32N 35°56' E 014°50'3 3.4
2015-Jul-31 09:33N 35°56' E 014°46'8 7.9
2015-Jul-31 08:33N 35°57' E 014°36'9 9.0
2015-Jul-31 07:33N 35°53' E 014°45'0 0.2
2015-Jul-31 06:33N 35°53' E 014°46'0 0.0
2015-Jul-31 05:33N 35°53' E 014°46'0 0.0
2015-Jul-31 04:33N 35°53' E 014°46'0 0.0
2015-Jul-31 03:33N 35°53' E 014°46'0 0.0
2015-Jul-31 02:30N 35°53' E 014°46'0 0.0
2015-Jul-31 01:33N 35°53' E 014°46'5 5.1
2015-Jul-31 00:33N 35°54' E 014°52'1212.4
2015-Jul-30 23:33N 36°04' E 015°02'1714.5
2015-Jul-30 22:24N 36°15' E 015°17'1214.5
2015-Jul-30 21:33N 36°23' E 015°28'1414.1
2015-Jul-30 20:33N 36°32' E 015°41'1414.4
2015-Jul-30 19:33N 36°41' E 015°55'1514.7
2015-Jul-30 18:33N 36°53' E 016°06'1615.2
2015-Jul-30 17:31N 37°06' E 016°18'4614.6
2015-Jul-30 14:23N 37°44' E 016°50'2714.5
2015-Jul-30 12:32N 38°07' E 017°08'  

Dump ship's entire track history